Aviation Digital Data Service (ADDS)

Output produced by METARs form (2117 UTC 19 November 2017)
found at http://aviationweather.gov/adds/metars/
 
METAR text: KPRB 192053Z AUTO 27005KT 10SM CLR 19/04 A3005 RMK AO2 SLP175 T01890039 58034
Conditions at: KPRB (PASO ROBLES , CA, US) observed 2053 UTC 19 November 2017
Temperature: 18.9°C (66°F)
Dewpoint: 3.9°C (39°F) [RH = 37%]
Pressure (altimeter): 30.05 inches Hg (1017.7 mb)
[Sea-level pressure: 1017.5 mb]
Winds: from the W (270 degrees) at 6 MPH (5 knots; 2.6 m/s)
Visibility: 10 or more miles (16+ km)
Ceiling: at least 12,000 feet AGL
Clouds: sky clear below 12,000 feet AGL
Weather: automated observation with no human augmentation;
there may or may not be significant weather present at this time